createdAt,value
2019-04-30T00:01:14.309Z,9.50
2019-04-30T00:03:55.708Z,9.50
2019-04-30T00:06:27.437Z,9.50
2019-04-30T00:08:57.583Z,9.50
2019-04-30T00:11:26.492Z,9.50
2019-04-30T00:13:58.841Z,9.50
2019-04-30T00:16:31.071Z,9.50
2019-04-30T00:19:00.755Z,9.50
2019-04-30T00:21:29.123Z,9.50
2019-04-30T00:24:00.910Z,9.60
2019-04-30T00:26:29.787Z,9.70
2019-04-30T00:28:58.957Z,9.80
2019-04-30T00:31:28.198Z,9.90
2019-04-30T00:34:01.273Z,9.90
2019-04-30T00:36:34.082Z,10.00
2019-04-30T00:38:59.551Z,10.00
2019-04-30T00:41:30.240Z,10.00
2019-04-30T00:44:00.285Z,10.00
2019-04-30T00:46:29.945Z,10.10
2019-04-30T00:49:08.785Z,10.10
2019-04-30T00:51:31.041Z,10.10
2019-04-30T00:54:00.429Z,10.10
2019-04-30T00:56:30.031Z,10.20
2019-04-30T00:59:02.664Z,10.20
2019-04-30T01:02:06.079Z,10.30
2019-04-30T01:04:45.013Z,10.30
2019-04-30T01:07:15.560Z,10.30
2019-04-30T01:09:49.535Z,10.30
2019-04-30T01:12:17.338Z,10.20
2019-04-30T01:14:47.069Z,10.20
2019-04-30T01:17:16.321Z,10.10
2019-04-30T01:19:50.499Z,10.10
2019-04-30T01:22:21.284Z,10.10
2019-04-30T01:24:49.644Z,10.20
2019-04-30T01:27:19.377Z,10.20
2019-04-30T01:29:48.765Z,10.20
2019-04-30T01:32:20.927Z,10.20
2019-04-30T01:34:53.656Z,10.20
2019-04-30T01:37:28.256Z,10.30
2019-04-30T01:39:52.245Z,10.30
2019-04-30T01:42:21.589Z,10.30
2019-04-30T01:44:53.764Z,10.20
2019-04-30T01:47:27.852Z,10.20
2019-04-30T01:49:55.834Z,10.20
2019-04-30T01:52:23.980Z,10.20
2019-04-30T01:54:53.284Z,10.20
2019-04-30T01:57:38.972Z,10.20
2019-04-30T02:00:29.249Z,10.30
2019-04-30T02:02:59.310Z,10.30
2019-04-30T02:05:28.826Z,10.40
2019-04-30T02:07:58.488Z,10.40
2019-04-30T02:10:28.566Z,10.40
2019-04-30T02:12:59.075Z,10.50
2019-04-30T02:15:29.302Z,10.50
2019-04-30T02:17:58.989Z,10.50
2019-04-30T02:20:28.802Z,10.60
2019-04-30T02:22:58.644Z,10.60
2019-04-30T02:25:29.564Z,10.60
2019-04-30T02:27:59.349Z,10.60
2019-04-30T02:30:30.891Z,10.60
2019-04-30T02:33:00.833Z,10.60
2019-04-30T02:35:40.717Z,10.60
2019-04-30T02:38:31.706Z,10.60
2019-04-30T02:41:02.571Z,10.70
2019-04-30T02:43:33.692Z,10.70
2019-04-30T02:46:04.874Z,10.70
2019-04-30T02:48:39.311Z,10.70
2019-04-30T02:51:10.107Z,10.70
2019-04-30T02:54:23.998Z,10.70
2019-04-30T02:57:13.250Z,10.70
2019-04-30T03:00:00.738Z,10.70
2019-04-30T03:02:31.163Z,10.70
2019-04-30T03:05:00.644Z,10.70
2019-04-30T03:07:30.013Z,10.70
2019-04-30T03:10:00.057Z,10.70
2019-04-30T03:12:33.379Z,10.80
2019-04-30T03:15:01.131Z,10.70
2019-04-30T03:17:55.243Z,10.80
2019-04-30T03:20:42.399Z,10.80
2019-04-30T03:23:11.584Z,10.80
2019-04-30T03:25:40.841Z,10.80
2019-04-30T03:28:10.344Z,10.80
2019-04-30T03:30:42.101Z,10.80
2019-04-30T03:33:12.673Z,10.80
2019-04-30T03:35:47.485Z,10.80
2019-04-30T03:38:12.376Z,10.80
2019-04-30T03:40:42.007Z,10.80
2019-04-30T03:43:11.244Z,10.80
2019-04-30T03:45:40.783Z,10.80
2019-04-30T03:48:10.737Z,10.80
2019-04-30T03:50:52.077Z,10.80
2019-04-30T03:53:11.226Z,10.80
2019-04-30T03:55:40.476Z,10.80
2019-04-30T03:58:09.786Z,10.80
2019-04-30T04:00:52.379Z,10.80
2019-04-30T04:03:21.698Z,10.90
2019-04-30T04:05:56.273Z,10.90
2019-04-30T04:08:36.315Z,10.90
2019-04-30T04:11:14.383Z,10.90
2019-04-30T04:13:43.986Z,10.90
2019-04-30T04:16:13.250Z,10.90
2019-04-30T04:18:43.344Z,11.00
2019-04-30T04:21:16.952Z,11.00
2019-04-30T04:23:44.706Z,11.00
2019-04-30T04:26:14.473Z,10.90
2019-04-30T04:28:43.835Z,10.90
2019-04-30T04:31:13.234Z,10.90
2019-04-30T04:33:42.769Z,10.90
2019-04-30T04:36:12.070Z,10.90
2019-04-30T04:38:41.712Z,10.90
2019-04-30T04:41:11.406Z,10.90
2019-04-30T04:43:40.784Z,10.90
2019-04-30T04:46:10.837Z,10.90
2019-04-30T04:48:40.418Z,10.90
2019-04-30T04:51:26.790Z,10.90
2019-04-30T04:53:40.501Z,11.00
2019-04-30T04:56:10.207Z,11.00
2019-04-30T04:58:40.218Z,11.00
2019-04-30T05:01:11.951Z,11.00
2019-04-30T05:03:41.454Z,11.00
2019-04-30T05:06:11.880Z,11.00
2019-04-30T05:08:41.674Z,11.00
2019-04-30T05:11:10.938Z,11.00
2019-04-30T05:13:40.237Z,11.10
2019-04-30T05:16:09.615Z,11.10
2019-04-30T05:18:39.502Z,11.10
2019-04-30T05:21:09.089Z,11.10
2019-04-30T05:23:41.126Z,11.10
2019-04-30T05:26:11.110Z,11.10
2019-04-30T05:28:41.097Z,11.20
2019-04-30T05:31:10.265Z,11.10
2019-04-30T05:33:40.157Z,11.10
2019-04-30T05:36:09.475Z,11.20
2019-04-30T05:38:39.248Z,11.20
2019-04-30T05:41:09.332Z,11.20
2019-04-30T05:43:39.080Z,11.20
2019-04-30T05:46:10.835Z,11.20
2019-04-30T05:48:39.777Z,11.20
2019-04-30T05:51:10.183Z,11.30
2019-04-30T05:53:39.800Z,11.30
2019-04-30T05:56:09.543Z,11.40
2019-04-30T05:58:39.724Z,11.40
2019-04-30T06:01:09.903Z,11.40
2019-04-30T06:03:39.515Z,11.40
2019-04-30T06:06:11.256Z,11.50
2019-04-30T06:08:49.494Z,11.50
2019-04-30T06:11:39.256Z,11.50
2019-04-30T06:14:28.648Z,11.50
2019-04-30T06:17:16.007Z,11.50
2019-04-30T06:19:45.193Z,11.50
2019-04-30T06:22:14.553Z,11.50
2019-04-30T06:24:44.212Z,11.60
2019-04-30T06:27:13.827Z,11.70
2019-04-30T06:29:43.669Z,11.80
2019-04-30T06:32:32.001Z,11.80
2019-04-30T06:35:01.213Z,11.80
2019-04-30T06:37:33.463Z,11.80
2019-04-30T06:40:02.707Z,11.90
2019-04-30T06:42:31.945Z,11.90
2019-04-30T06:45:01.259Z,12.00
2019-04-30T06:47:33.201Z,12.00
2019-04-30T06:50:02.485Z,12.00
2019-04-30T06:52:31.769Z,12.00
2019-04-30T06:55:00.921Z,12.00
2019-04-30T06:57:30.541Z,12.00
2019-04-30T07:00:00.079Z,12.00
2019-04-30T07:02:30.892Z,12.10
2019-04-30T07:05:00.258Z,12.10
2019-04-30T07:07:38.402Z,12.20
2019-04-30T07:10:17.960Z,12.30
2019-04-30T07:13:01.996Z,12.30
2019-04-30T07:15:31.280Z,12.30
2019-04-30T07:18:00.528Z,12.30
2019-04-30T07:20:33.763Z,12.40
2019-04-30T07:25:32.098Z,12.50
2019-04-30T07:28:01.608Z,12.50
2019-04-30T07:30:31.066Z,12.50
2019-04-30T07:33:00.767Z,12.50
2019-04-30T07:35:29.942Z,12.60
2019-04-30T07:38:04.553Z,12.60
2019-04-30T07:40:30.397Z,12.60
2019-04-30T07:42:59.635Z,12.60
2019-04-30T07:45:31.972Z,12.60
2019-04-30T07:48:01.011Z,12.60
2019-04-30T07:50:31.598Z,12.60
2019-04-30T07:53:05.614Z,12.60
2019-04-30T07:55:32.642Z,12.60
2019-04-30T07:58:01.918Z,12.60
2019-04-30T08:00:31.389Z,12.60
2019-04-30T08:03:11.294Z,12.60
2019-04-30T08:05:43.414Z,12.60
2019-04-30T08:08:21.104Z,12.60
2019-04-30T08:09:34.154Z,12.40
2019-04-30T08:10:43.890Z,12.60
2019-04-30T08:13:15.221Z,12.60
2019-04-30T08:15:43.972Z,12.60
2019-04-30T08:18:13.210Z,12.70
2019-04-30T08:20:42.502Z,12.70
2019-04-30T08:23:20.346Z,12.70
2019-04-30T08:25:42.653Z,12.70
2019-04-30T08:28:11.847Z,12.70
2019-04-30T08:30:41.095Z,12.80
2019-04-30T08:33:10.448Z,12.80
2019-04-30T08:35:39.864Z,12.90
2019-04-30T08:38:10.819Z,12.90
2019-04-30T08:40:52.820Z,13.00
2019-04-30T08:43:11.231Z,13.00
2019-04-30T08:45:40.677Z,13.00
2019-04-30T08:48:10.152Z,13.00
2019-04-30T08:50:40.067Z,13.10
2019-04-30T08:53:26.597Z,13.10
2019-04-30T08:55:40.968Z,13.10
2019-04-30T08:58:20.574Z,13.20
2019-04-30T09:00:58.796Z,13.30
2019-04-30T09:03:32.569Z,13.30
2019-04-30T09:06:12.843Z,13.40
2019-04-30T09:08:56.328Z,13.40
2019-04-30T09:11:38.521Z,13.50
2019-04-30T09:14:04.948Z,13.60
2019-04-30T09:16:42.185Z,13.60
2019-04-30T09:19:11.592Z,13.60
2019-04-30T09:21:40.777Z,13.70
2019-04-30T09:24:10.400Z,13.80
2019-04-30T09:26:40.020Z,14.00
2019-04-30T09:29:09.529Z,13.90
2019-04-30T09:31:40.771Z,13.90
2019-04-30T09:34:16.995Z,13.90
2019-04-30T09:36:40.970Z,13.90
2019-04-30T09:39:10.395Z,14.00
2019-04-30T09:41:41.166Z,14.00
2019-04-30T09:44:10.700Z,14.00
2019-04-30T09:46:39.961Z,14.00
2019-04-30T09:49:09.837Z,14.00
2019-04-30T09:51:41.376Z,14.10
2019-04-30T09:54:12.788Z,14.10
2019-04-30T09:56:41.982Z,14.10
2019-04-30T09:59:11.662Z,14.10
2019-04-30T10:01:41.696Z,14.00
2019-04-30T10:04:11.555Z,14.00
2019-04-30T10:06:41.249Z,13.90
2019-04-30T10:09:12.445Z,14.00
2019-04-30T10:12:10.015Z,14.00
2019-04-30T10:14:40.962Z,14.00
2019-04-30T10:17:25.977Z,14.10
2019-04-30T10:19:55.556Z,14.10
2019-04-30T10:22:24.719Z,14.00
2019-04-30T10:24:54.043Z,14.00
2019-04-30T10:27:24.732Z,14.00
2019-04-30T10:29:54.707Z,14.00
2019-04-30T10:32:23.989Z,14.10
2019-04-30T10:34:53.739Z,14.10
2019-04-30T10:37:23.694Z,14.10
2019-04-30T10:39:52.869Z,14.20
2019-04-30T10:42:22.123Z,14.20
2019-04-30T10:44:51.486Z,14.10
2019-04-30T10:47:20.987Z,14.10
2019-04-30T10:49:50.163Z,14.10
2019-04-30T10:52:19.462Z,14.10
2019-04-30T10:54:49.609Z,14.20
2019-04-30T10:57:19.103Z,14.30
2019-04-30T10:59:48.754Z,14.30
2019-04-30T11:02:18.144Z,14.40
2019-04-30T11:04:47.394Z,14.50
2019-04-30T11:07:18.540Z,14.60
2019-04-30T11:09:49.330Z,14.60
2019-04-30T11:12:19.337Z,14.70
2019-04-30T11:14:48.773Z,14.70
2019-04-30T11:17:19.750Z,14.80
2019-04-30T11:19:49.309Z,14.80
2019-04-30T11:22:19.343Z,14.80
2019-04-30T11:24:58.999Z,14.80
2019-04-30T11:27:20.978Z,14.90
2019-04-30T11:29:50.992Z,14.90
2019-04-30T11:32:23.000Z,15.10
2019-04-30T11:34:52.441Z,15.20
2019-04-30T11:37:21.641Z,15.30
2019-04-30T11:39:51.185Z,15.30
2019-04-30T11:42:21.037Z,15.30
2019-04-30T11:44:50.296Z,15.20
2019-04-30T11:47:27.309Z,15.20
2019-04-30T11:49:56.914Z,15.10
2019-04-30T11:52:26.168Z,15.00
2019-04-30T11:54:55.361Z,14.90
2019-04-30T11:57:24.555Z,14.80
2019-04-30T11:59:53.711Z,14.80
2019-04-30T12:02:54.391Z,14.90
2019-04-30T12:05:25.292Z,15.10
2019-04-30T12:08:07.025Z,15.20
2019-04-30T12:11:01.278Z,15.30
2019-04-30T12:13:31.995Z,15.40
2019-04-30T12:16:02.162Z,15.60
2019-04-30T12:18:31.380Z,15.70
2019-04-30T12:21:01.003Z,15.90
2019-04-30T12:23:31.725Z,15.90
2019-04-30T12:26:02.919Z,16.00
2019-04-30T12:28:32.315Z,16.00
2019-04-30T12:31:01.484Z,16.10
2019-04-30T12:33:31.043Z,16.30
2019-04-30T12:36:00.582Z,16.30
2019-04-30T12:38:30.075Z,16.40
2019-04-30T12:40:59.271Z,16.30
2019-04-30T12:43:28.862Z,16.20
2019-04-30T12:46:03.326Z,16.10
2019-04-30T12:48:44.037Z,16.10
2019-04-30T12:51:22.803Z,16.10
2019-04-30T12:53:56.193Z,16.30
2019-04-30T12:56:32.036Z,16.80
2019-04-30T12:59:01.579Z,17.60
2019-04-30T13:01:32.167Z,17.80
2019-04-30T13:04:01.791Z,17.50
2019-04-30T13:06:31.809Z,17.20
2019-04-30T13:09:02.125Z,16.90
2019-04-30T13:11:32.460Z,16.50
2019-04-30T13:14:02.414Z,16.40
2019-04-30T13:16:32.384Z,16.40
2019-04-30T13:19:01.544Z,16.60
2019-04-30T13:21:30.797Z,16.80
2019-04-30T13:24:00.775Z,17.00
2019-04-30T13:26:29.978Z,17.30
2019-04-30T13:29:10.073Z,17.60
2019-04-30T13:31:40.337Z,17.80
2019-04-30T13:34:29.840Z,18.00
2019-04-30T13:36:59.423Z,18.00
2019-04-30T13:39:34.166Z,17.80
2019-04-30T13:42:17.563Z,17.60
2019-04-30T13:44:42.494Z,17.30
2019-04-30T13:47:12.211Z,17.00
2019-04-30T13:49:41.822Z,16.90
2019-04-30T13:52:11.155Z,16.90
2019-04-30T13:54:41.120Z,16.90
2019-04-30T13:57:10.498Z,16.90
2019-04-30T13:59:39.802Z,16.80
2019-04-30T14:02:09.848Z,16.80
2019-04-30T14:05:01.350Z,16.80
2019-04-30T14:07:52.918Z,16.70
2019-04-30T14:10:22.694Z,16.40
2019-04-30T14:12:58.686Z,16.30
2019-04-30T14:15:29.195Z,16.20
2019-04-30T14:17:59.775Z,16.30
2019-04-30T14:20:29.138Z,16.30
2019-04-30T14:22:58.356Z,16.30
2019-04-30T14:25:27.811Z,16.40
2019-04-30T14:27:59.120Z,16.50
2019-04-30T14:30:29.237Z,16.60
2019-04-30T14:32:59.319Z,16.70
2019-04-30T14:35:28.774Z,17.10
2019-04-30T14:37:59.643Z,17.50
2019-04-30T14:40:30.596Z,17.70
2019-04-30T14:43:11.748Z,18.00
2019-04-30T14:46:03.660Z,18.20
2019-04-30T14:48:40.436Z,18.10
2019-04-30T14:51:09.752Z,18.00
2019-04-30T14:53:45.946Z,17.80
2019-04-30T14:56:43.102Z,17.80
2019-04-30T14:59:46.401Z,17.90
2019-04-30T15:02:37.475Z,17.90
2019-04-30T15:05:09.065Z,17.70
2019-04-30T15:07:39.687Z,17.60
2019-04-30T15:10:09.716Z,17.70
2019-04-30T15:12:40.051Z,17.60
2019-04-30T15:15:09.985Z,17.40
2019-04-30T15:17:41.261Z,17.50
2019-04-30T15:20:11.742Z,17.40
2019-04-30T15:22:45.819Z,17.20
2019-04-30T15:25:15.473Z,17.10
2019-04-30T15:27:49.139Z,17.00
2019-04-30T15:30:21.692Z,16.90
2019-04-30T15:32:50.669Z,16.90
2019-04-30T15:35:21.115Z,16.90
2019-04-30T15:37:52.033Z,16.90
2019-04-30T15:40:21.898Z,16.90
2019-04-30T15:42:52.922Z,17.10
2019-04-30T15:45:22.289Z,17.10
2019-04-30T15:47:51.804Z,17.10
2019-04-30T15:50:21.198Z,17.00
2019-04-30T15:52:51.195Z,16.80
2019-04-30T15:55:20.609Z,16.70
2019-04-30T15:58:09.316Z,16.70
2019-04-30T16:00:39.438Z,16.70
2019-04-30T16:03:15.651Z,16.80
2019-04-30T16:05:48.047Z,16.90
2019-04-30T16:08:45.474Z,16.90
2019-04-30T16:11:30.003Z,16.60
2019-04-30T16:14:18.752Z,16.60
2019-04-30T16:17:23.435Z,16.80
2019-04-30T16:19:52.824Z,16.90
2019-04-30T16:22:22.503Z,16.80
2019-04-30T16:24:54.474Z,16.70
2019-04-30T16:27:22.983Z,16.60
2019-04-30T16:29:52.427Z,16.50
2019-04-30T16:32:23.649Z,16.50
2019-04-30T16:34:53.209Z,16.40
2019-04-30T16:37:22.851Z,16.30
2019-04-30T16:39:52.277Z,16.30
2019-04-30T16:42:21.811Z,16.30
2019-04-30T16:44:51.188Z,16.20
2019-04-30T16:47:20.536Z,16.10
2019-04-30T16:49:49.970Z,16.20
2019-04-30T16:52:19.296Z,16.20
2019-04-30T16:54:49.775Z,16.20
2019-04-30T16:57:19.569Z,16.20
2019-04-30T16:59:49.970Z,16.20
2019-04-30T17:02:42.415Z,16.00
2019-04-30T17:05:20.397Z,15.90
2019-04-30T17:08:09.330Z,15.80
2019-04-30T17:11:03.248Z,15.70
2019-04-30T17:13:43.593Z,15.60
2019-04-30T17:16:16.218Z,15.60
2019-04-30T17:18:45.698Z,15.50
2019-04-30T17:21:15.074Z,15.30
2019-04-30T17:23:44.657Z,15.30
2019-04-30T17:26:13.914Z,15.30
2019-04-30T17:28:43.217Z,15.20
2019-04-30T17:31:13.550Z,15.10
2019-04-30T17:33:42.948Z,15.00
2019-04-30T17:36:12.327Z,14.80
2019-04-30T17:38:41.682Z,14.80
2019-04-30T17:41:11.443Z,14.70
2019-04-30T17:43:41.814Z,14.60
2019-04-30T17:46:11.565Z,14.60
2019-04-30T17:48:41.223Z,14.50
2019-04-30T17:51:10.611Z,14.50
2019-04-30T17:53:58.870Z,14.40
2019-04-30T17:56:28.346Z,14.30
2019-04-30T17:58:57.944Z,14.20
2019-04-30T18:01:27.418Z,14.20
2019-04-30T18:03:58.793Z,14.10
2019-04-30T18:06:28.674Z,14.10
2019-04-30T18:08:58.348Z,14.00
2019-04-30T18:11:29.448Z,14.00
2019-04-30T18:13:58.999Z,13.90
2019-04-30T18:16:28.714Z,13.80
2019-04-30T18:19:18.686Z,13.70
2019-04-30T18:21:52.942Z,13.70
2019-04-30T18:24:30.104Z,13.60
2019-04-30T18:27:09.532Z,13.60
2019-04-30T18:29:55.010Z,13.60
2019-04-30T18:32:26.767Z,13.50
2019-04-30T18:34:56.295Z,13.40
2019-04-30T18:37:25.871Z,13.30
2019-04-30T18:39:55.227Z,13.20
2019-04-30T18:42:24.457Z,13.20
2019-04-30T18:44:53.652Z,13.10
2019-04-30T18:47:22.824Z,13.00
2019-04-30T18:49:51.987Z,13.00
2019-04-30T18:52:21.198Z,12.90
2019-04-30T18:54:50.366Z,12.80
2019-04-30T18:57:19.590Z,12.80
2019-04-30T18:59:48.913Z,12.70
2019-04-30T19:02:18.981Z,12.70
2019-04-30T19:04:49.599Z,12.60
2019-04-30T19:07:25.544Z,12.50
2019-04-30T19:10:17.089Z,12.40
2019-04-30T19:13:11.421Z,12.40
2019-04-30T19:16:18.670Z,12.30
2019-04-30T19:18:39.077Z,12.30
2019-04-30T19:21:09.264Z,12.20
2019-04-30T19:23:39.072Z,12.20
2019-04-30T19:26:09.220Z,12.10
2019-04-30T19:28:38.743Z,12.10
2019-04-30T19:31:09.156Z,12.10
2019-04-30T19:33:39.556Z,12.00
2019-04-30T19:36:09.794Z,11.90
2019-04-30T19:38:39.284Z,11.90
2019-04-30T19:41:10.655Z,11.80
2019-04-30T19:43:39.977Z,11.80
2019-04-30T19:46:09.262Z,11.70
2019-04-30T19:48:38.821Z,11.70
2019-04-30T19:51:08.868Z,11.60
2019-04-30T19:53:39.503Z,11.60
2019-04-30T19:56:08.958Z,11.50
2019-04-30T19:58:54.409Z,11.50
2019-04-30T20:01:09.539Z,11.50
2019-04-30T20:03:40.676Z,11.40
2019-04-30T20:06:09.772Z,11.30
2019-04-30T20:08:38.950Z,11.30
2019-04-30T20:11:08.204Z,11.30
2019-04-30T20:13:37.524Z,11.20
2019-04-30T20:16:07.188Z,11.20
2019-04-30T20:18:36.332Z,11.10
2019-04-30T20:21:09.864Z,11.10
2019-04-30T20:23:39.144Z,11.10
2019-04-30T20:26:08.390Z,11.00
2019-04-30T20:28:41.483Z,11.00
2019-04-30T20:31:08.997Z,11.00
2019-04-30T20:33:39.580Z,11.00
2019-04-30T20:36:09.325Z,10.90
2019-04-30T20:38:57.962Z,10.80
2019-04-30T20:41:28.649Z,10.70
2019-04-30T20:43:58.144Z,10.70
2019-04-30T20:46:34.255Z,10.60
2019-04-30T20:48:59.306Z,10.60
2019-04-30T20:51:29.150Z,10.60
2019-04-30T20:53:59.313Z,10.50
2019-04-30T20:56:29.235Z,10.60
2019-04-30T20:59:04.107Z,10.60
2019-04-30T21:01:30.411Z,10.50
2019-04-30T21:03:59.702Z,10.50
2019-04-30T21:06:29.752Z,10.50
2019-04-30T21:09:00.148Z,10.40
2019-04-30T21:11:29.433Z,10.40
2019-04-30T21:13:59.152Z,10.40
2019-04-30T21:16:28.572Z,10.40
2019-04-30T21:18:57.983Z,10.30
2019-04-30T21:21:28.731Z,10.30
2019-04-30T21:23:58.392Z,10.30
2019-04-30T21:26:28.129Z,10.30
2019-04-30T21:29:10.396Z,10.20
2019-04-30T21:31:44.170Z,10.20
2019-04-30T21:34:25.088Z,10.20
2019-04-30T21:36:54.463Z,10.10
2019-04-30T21:39:23.850Z,10.10
2019-04-30T21:41:53.092Z,10.10
2019-04-30T21:44:22.354Z,10.00
2019-04-30T21:46:51.689Z,10.00
2019-04-30T21:49:20.868Z,10.00
2019-04-30T21:51:50.036Z,10.00
2019-04-30T21:54:19.542Z,9.90
2019-04-30T21:56:49.386Z,9.90
2019-04-30T21:59:24.402Z,9.90
2019-04-30T22:01:49.880Z,9.80
2019-04-30T22:04:19.306Z,9.80
2019-04-30T22:06:49.502Z,9.80
2019-04-30T22:09:19.674Z,9.80
2019-04-30T22:11:49.393Z,9.70
2019-04-30T22:14:19.083Z,9.70
2019-04-30T22:16:49.425Z,9.70
2019-04-30T22:19:18.809Z,9.70
2019-04-30T22:21:49.609Z,9.70
2019-04-30T22:24:19.132Z,9.60
2019-04-30T22:26:48.515Z,9.60
2019-04-30T22:29:19.161Z,9.60
2019-04-30T22:31:49.509Z,9.50
2019-04-30T22:34:18.911Z,9.50
2019-04-30T22:36:49.062Z,9.40
2019-04-30T22:39:44.031Z,9.40
2019-04-30T22:42:39.943Z,9.40
2019-04-30T22:45:18.093Z,9.30
2019-04-30T22:47:50.201Z,9.30
2019-04-30T22:50:18.524Z,9.30
2019-04-30T22:52:47.718Z,9.30
2019-04-30T22:55:17.298Z,9.30
2019-04-30T22:57:46.525Z,9.20
2019-04-30T23:00:23.119Z,9.20
2019-04-30T23:03:01.390Z,9.20
2019-04-30T23:05:30.975Z,9.20
2019-04-30T23:08:00.239Z,9.20
2019-04-30T23:10:29.487Z,9.10
2019-04-30T23:12:58.668Z,9.10
2019-04-30T23:15:28.053Z,9.00
2019-04-30T23:17:57.324Z,9.00
2019-04-30T23:20:26.871Z,9.00
2019-04-30T23:22:56.457Z,9.00
2019-04-30T23:25:25.685Z,9.00
2019-04-30T23:27:55.282Z,8.90
2019-04-30T23:30:24.543Z,8.90
2019-04-30T23:32:53.803Z,8.90
2019-04-30T23:35:23.465Z,8.90
2019-04-30T23:37:52.865Z,8.90
2019-04-30T23:40:27.458Z,8.90
2019-04-30T23:42:57.397Z,8.90
2019-04-30T23:45:29.333Z,8.80
2019-04-30T23:48:01.241Z,8.80
2019-04-30T23:50:31.519Z,8.70
2019-04-30T23:53:01.200Z,8.70
2019-04-30T23:55:30.561Z,8.70
2019-04-30T23:58:00.308Z,8.60
